Aviation Digital Data Service (ADDS)

Output produced by METARs form (2045 UTC 25 February 2017)
found at http://www.aviationweather.gov/adds/metars/
 
KDOV 251958Z AUTO 11011KT 10SM FEW048 SCT060 20/15 A2948 RMK AO2 SLP986 T02010152 $
TAF AMD KDOV 251921Z 2519/2622 11015G20KT 9999 SCT004 SCT020 QNH2948INS 
     BECMG 2521/2522 30020G25KT 9000 -SHRA OVC020 510104 QNH2950INS 
     TEMPO 2522/2601 22025G35KT 3200 -TSRA OVC015CB 
     BECMG 2601/2602 30025G35KT 9999 NSW FEW015 SCT030 510003 QNH2962INS 
     BECMG 2602/2603 27015G25KT 9999 FEW015 SCT030 QNH2962INS 
     BECMG 2621/2622 27009KT 9999 SKC QNH3015INS TX23/2519Z TN03/2612Z